Time;durP1;ratioP1;P1;durP2;ratioP2;P2;SDS_P1;SDS_P2;PMS_P1;PMS_P2;Temp;Humidity;BMP_temperature;BMP_pressure;BME280_temperature;BME280_humidity;BME280_pressure;Samples;Min_cycle;Max_cycle;Signal;HPM_P1;HPM_P2
2022/04/20 00:00:06;;;;;;;10.47;9.67;;;;;;;6.62;86.51;102119.34;4973292;28;20438;-48
2022/04/20 00:02:33;;;;;;;12.27;10.73;;;;;;;6.57;85.50;102113.59;4972623;28;21051;-44
2022/04/20 00:05:01;;;;;;;13.07;11.97;;;;;;;6.57;85.40;102118.09;4973078;28;20426;-44
2022/04/20 00:07:29;;;;;;;14.93;13.00;;;;;;;6.57;85.48;102113.59;4973314;28;20438;-46
2022/04/20 00:09:56;;;;;;;12.77;11.77;;;;;;;6.52;85.93;102117.63;4973210;28;20435;-46
2022/04/20 00:12:24;;;;;;;13.00;12.00;;;;;;;6.45;86.64;102109.38;4972530;28;20466;-45
2022/04/20 00:14:53;;;;;;;13.43;11.77;;;;;;;6.42;86.60;102108.84;4973243;28;20478;-46
2022/04/20 00:17:20;;;;;;;20.27;15.67;;;;;;;6.40;86.54;102103.66;4973059;28;20439;-44
2022/04/20 00:19:48;;;;;;;22.10;15.60;;;;;;;6.38;87.36;102113.56;4973041;28;20437;-44
2022/04/20 00:22:15;;;;;;;19.97;17.20;;;;;;;6.38;88.38;102110.09;4972540;28;20470;-46
2022/04/20 00:24:43;;;;;;;18.20;16.30;;;;;;;6.35;88.13;102100.59;4973158;28;20469;-48
2022/04/20 00:27:11;;;;;;;14.40;13.10;;;;;;;6.34;88.16;102108.66;4973282;28;20438;-45
2022/04/20 00:29:38;;;;;;;12.30;11.03;;;;;;;6.29;87.38;102111.75;4973018;28;20446;-49
2022/04/20 00:32:09;;;;;;;13.13;11.97;;;;;;;6.25;87.17;102107.66;4972150;28;20549;-46
2022/04/20 00:34:36;;;;;;;12.90;11.70;;;;;;;6.19;86.85;102117.97;4973062;28;20481;-47
2022/04/20 00:37:04;;;;;;;12.73;11.70;;;;;;;6.13;86.48;102106.09;4972945;28;20438;-49
2022/04/20 00:39:32;;;;;;;12.50;11.50;;;;;;;6.06;86.44;102119.03;4972967;28;20434;-49
2022/04/20 00:42:00;;;;;;;13.30;12.03;;;;;;;6.00;86.13;102119.56;4972103;28;20999;-49
2022/04/20 00:44:28;;;;;;;11.10;10.40;;;;;;;5.96;85.41;102112.88;4955236;28;20436;-44
2022/04/20 00:46:57;;;;;;;12.50;11.47;;;;;;;5.93;85.63;102114.94;4965034;28;20463;-45
2022/04/20 00:49:27;;;;;;;11.60;10.63;;;;;;;5.88;85.16;102120.66;4972367;28;20437;-44
2022/04/20 00:51:57;;;;;;;12.30;11.30;;;;;;;5.84;85.70;102113.06;4976120;28;20469;-49
2022/04/20 00:54:25;;;;;;;11.67;10.67;;;;;;;5.78;85.62;102114.44;4976495;28;20474;-49
2022/04/20 00:56:53;;;;;;;10.53;9.63;;;;;;;5.76;85.68;102115.53;4976627;28;20434;-49
2022/04/20 00:59:24;;;;;;;11.90;10.50;;;;;;;5.73;85.31;102114.00;4976632;28;20441;-51
2022/04/20 01:01:52;;;;;;;12.23;11.23;;;;;;;5.71;85.55;102118.56;4975874;28;20466;-50
2022/04/20 01:04:20;;;;;;;11.13;10.37;;;;;;;5.70;85.68;102113.44;4976412;28;20865;-46
2022/04/20 01:06:50;;;;;;;11.47;10.60;;;;;;;5.70;85.94;102119.56;4976437;28;20443;-49
2022/04/20 01:09:18;;;;;;;14.03;12.73;;;;;;;5.73;86.08;102121.09;4976337;28;20438;-50
2022/04/20 01:11:46;;;;;;;13.60;12.33;;;;;;;5.74;86.56;102118.31;4975361;28;20470;-46
2022/04/20 01:14:13;;;;;;;11.70;10.60;;;;;;;5.76;86.38;102111.09;4976268;28;20437;-50
2022/04/20 01:16:41;;;;;;;11.33;9.17;;;;;;;5.75;86.57;102113.84;4976255;28;20460;-48
2022/04/20 01:19:08;;;;;;;10.93;10.03;;;;;;;5.74;86.01;102113.00;4976262;28;20438;-47
2022/04/20 01:21:37;;;;;;;11.80;10.80;;;;;;;5.74;86.24;102114.81;4975388;28;20835;-49
2022/04/20 01:24:06;;;;;;;10.23;9.53;;;;;;;5.73;85.71;102113.16;4975993;28;20438;-49
2022/04/20 01:26:33;;;;;;;12.97;11.70;;;;;;;5.72;85.68;102109.66;4975825;28;20447;-46
2022/04/20 01:29:03;;;;;;;10.80;10.10;;;;;;;5.70;85.50;102111.63;4976272;28;20431;-53
2022/04/20 01:31:31;;;;;;;12.30;11.30;;;;;;;5.69;85.89;102109.94;4975387;28;21152;-47
2022/04/20 01:33:59;;;;;;;11.63;10.47;;;;;;;5.69;85.39;102109.94;4975719;28;20439;-46
2022/04/20 01:36:26;;;;;;;11.30;10.30;;;;;;;5.68;85.96;102110.06;4975639;28;20996;-47
2022/04/20 01:38:55;;;;;;;9.43;8.83;;;;;;;5.65;85.48;102113.81;4975589;28;20928;-46
2022/04/20 01:41:23;;;;;;;10.10;9.40;;;;;;;5.62;85.36;102113.22;4975067;28;20995;-47
2022/04/20 01:43:50;;;;;;;11.00;10.20;;;;;;;5.59;85.34;102114.31;4962809;28;20428;-48
2022/04/20 01:46:18;;;;;;;9.20;8.60;;;;;;;5.54;84.92;102109.44;4962461;28;20441;-49
2022/04/20 01:48:46;;;;;;;9.40;8.60;;;;;;;5.51;85.01;102106.22;4967494;28;20463;-51
2022/04/20 01:53:59;;;;;;;9.00;8.50;;;;;;;5.45;85.44;102109.38;4968580;28;20982;-50
2022/04/20 01:56:27;;;;;;;9.73;9.00;;;;;;;5.42;85.21;102110.47;4965598;28;20472;-53
2022/04/20 01:58:55;;;;;;;10.07;9.17;;;;;;;5.41;84.66;102110.59;4974970;28;20928;-47
2022/04/20 02:04:08;;;;;;;12.43;11.33;;;;;;;5.41;86.53;102105.31;4975149;28;20579;-50
2022/04/20 02:06:35;;;;;;;11.60;10.50;;;;;;;5.42;87.05;102107.00;4975394;28;20438;-46
2022/04/20 02:09:04;;;;;;;12.30;11.23;;;;;;;5.46;87.85;102109.25;4975280;28;20435;-49
2022/04/20 02:11:32;;;;;;;12.27;11.00;;;;;;;5.44;87.27;102099.75;4974525;28;20471;-46
2022/04/20 02:14:00;;;;;;;11.27;10.47;;;;;;;5.43;87.01;102092.81;4975078;28;21183;-48
2022/04/20 02:16:27;;;;;;;10.30;9.60;;;;;;;5.40;86.81;102093.06;4974806;28;21010;-46
2022/04/20 02:18:56;;;;;;;11.53;10.43;;;;;;;5.38;87.40;102095.81;4975080;28;20431;-51
2022/04/20 02:21:23;;;;;;;11.90;10.63;;;;;;;5.36;87.21;102092.47;4974463;28;20496;-46
2022/04/20 02:23:51;;;;;;;11.77;10.87;;;;;;;5.37;87.45;102093.31;4974852;28;20960;-46
2022/04/20 02:26:20;;;;;;;12.73;11.73;;;;;;;5.40;87.94;102098.34;4974850;28;20449;-53
2022/04/20 02:28:48;;;;;;;11.43;10.60;;;;;;;5.38;88.41;102090.53;4974646;28;20957;-46
2022/04/20 02:31:16;;;;;;;11.47;10.70;;;;;;;5.38;88.29;102100.28;4973943;28;20463;-45
2022/04/20 02:33:44;;;;;;;12.00;11.10;;;;;;;5.34;88.27;102097.06;4975007;28;20438;-44
2022/04/20 02:36:12;;;;;;;10.97;10.03;;;;;;;5.32;88.72;102098.16;4974717;28;20474;-43
2022/04/20 02:38:41;;;;;;;11.63;10.93;;;;;;;5.31;89.05;102099.13;4974619;28;20435;-43
2022/04/20 02:41:09;;;;;;;10.37;9.67;;;;;;;5.29;88.68;102096.59;4973758;28;20991;-46
2022/04/20 02:43:38;;;;;;;11.27;10.40;;;;;;;5.29;89.23;102095.75;4963558;28;20767;-46
2022/04/20 02:46:07;;;;;;;11.10;10.40;;;;;;;5.24;89.04;102090.03;4955362;29;20438;-43
2022/04/20 02:48:35;;;;;;;11.17;10.17;;;;;;;5.17;88.62;102092.34;4955300;28;20861;-43
2022/04/20 02:51:03;;;;;;;11.33;10.50;;;;;;;5.12;88.60;102088.41;4954360;28;20495;-49
2022/04/20 02:53:31;;;;;;;11.67;10.73;;;;;;;5.01;88.20;102091.97;4955200;29;20432;-49
2022/04/20 02:55:58;;;;;;;10.63;9.80;;;;;;;4.88;88.02;102099.22;4955072;29;20503;-43
2022/04/20 02:58:26;;;;;;;10.73;9.93;;;;;;;4.77;87.55;102099.28;4955346;29;20435;-43
2022/04/20 03:00:55;;;;;;;10.33;9.47;;;;;;;4.66;87.16;102099.34;4954368;28;20462;-45
2022/04/20 03:03:22;;;;;;;10.40;9.50;;;;;;;4.54;87.19;102093.22;4954936;29;20787;-44
2022/04/20 03:05:51;;;;;;;9.93;9.20;;;;;;;4.46;87.56;102088.56;4954871;29;20435;-48
2022/04/20 03:08:19;;;;;;;10.80;10.00;;;;;;;4.40;87.56;102089.06;4954344;28;21042;-43
2022/04/20 03:10:46;;;;;;;14.00;12.80;;;;;;;4.43;88.89;102088.81;4954451;29;20438;-45
2022/04/20 03:13:15;;;;;;;13.47;12.30;;;;;;;4.50;90.24;102078.59;4954431;28;20471;-46
2022/04/20 03:15:43;;;;;;;15.97;14.70;;;;;;;4.57;90.79;102082.41;4954783;29;20480;-46
2022/04/20 03:18:12;;;;;;;15.70;14.50;;;;;;;4.65;92.69;102077.34;4954544;29;20455;-45
2022/04/20 03:20:39;;;;;;;15.27;13.87;;;;;;;4.74;93.64;102073.94;4954270;29;20929;-46
2022/04/20 03:23:07;;;;;;;13.20;12.30;;;;;;;4.81;94.82;102080.38;4954008;28;20468;-43
2022/04/20 03:25:35;;;;;;;14.43;13.23;;;;;;;4.87;94.62;102074.59;4954809;28;20495;-45
2022/04/20 03:28:03;;;;;;;14.37;13.37;;;;;;;4.94;95.90;102078.41;4954687;29;20446;-43
2022/04/20 03:30:31;;;;;;;13.27;12.17;;;;;;;5.01;95.74;102079.59;4954184;29;20446;-44
2022/04/20 03:32:58;;;;;;;13.43;12.50;;;;;;;5.09;96.85;102081.59;4953961;28;20467;-44
2022/04/20 03:35:27;;;;;;;11.83;11.00;;;;;;;5.14;96.19;102083.84;4954197;29;20955;-49
2022/04/20 03:37:55;;;;;;;12.30;11.23;;;;;;;5.18;96.22;102087.91;4954241;29;20439;-47
2022/04/20 03:40:22;;;;;;;12.83;11.93;;;;;;;5.24;96.73;102090.03;4954225;29;20443;-44
2022/04/20 03:42:50;;;;;;;12.40;11.60;;;;;;;5.29;96.94;102090.47;4949230;28;20859;-46
2022/04/20 03:45:18;;;;;;;12.47;11.37;;;;;;;5.36;97.15;102094.28;4935439;29;20930;-43
2022/04/20 03:47:45;;;;;;;12.03;11.03;;;;;;;5.41;97.17;102094.72;4962560;28;20446;-44
2022/04/20 03:50:17;;;;;;;11.43;10.60;;;;;;;5.45;97.08;102085.56;4973407;28;20842;-45
2022/04/20 03:52:46;;;;;;;12.60;11.30;;;;;;;5.47;97.26;102084.47;4972882;28;20473;-47
2022/04/20 03:55:14;;;;;;;12.77;11.67;;;;;;;5.49;96.92;102082.56;4973420;28;20932;-45
2022/04/20 03:57:41;;;;;;;10.50;9.80;;;;;;;5.49;96.79;102087.00;4973336;28;20481;-44
2022/04/20 04:00:10;;;;;;;10.60;9.90;;;;;;;5.48;96.47;102085.31;4973266;28;20435;-49
2022/04/20 04:02:37;;;;;;;11.10;10.30;;;;;;;5.51;96.65;102092.97;4972445;28;20479;-47
2022/04/20 04:05:06;;;;;;;11.30;10.50;;;;;;;5.54;96.31;102085.63;4973338;28;20457;-48
2022/04/20 04:07:37;;;;;;;11.57;10.77;;;;;;;5.55;96.41;102089.13;4973547;28;20454;-48
2022/04/20 04:10:08;;;;;;;12.10;11.10;;;;;;;5.56;96.27;102094.25;4973418;28;20431;-46
2022/04/20 04:12:36;;;;;;;12.80;11.70;;;;;;;5.59;96.01;102087.88;4972732;28;20482;-45
2022/04/20 04:15:06;;;;;;;11.20;10.50;;;;;;;5.61;95.41;102101.81;4973126;28;20438;-47
2022/04/20 04:17:34;;;;;;;10.63;9.93;;;;;;;5.67;95.12;102096.00;4973312;28;20496;-47
2022/04/20 04:20:01;;;;;;;10.33;9.57;;;;;;;5.69;94.43;102096.69;4974635;28;20515;-48
2022/04/20 04:22:29;;;;;;;10.43;9.53;;;;;;;5.73;93.75;102095.47;4976714;28;20813;-43
2022/04/20 04:24:57;;;;;;;10.00;9.40;;;;;;;5.77;93.42;102096.03;4977187;28;20445;-49
2022/04/20 04:27:26;;;;;;;11.10;9.70;;;;;;;5.85;92.93;102105.03;4977064;28;20457;-44
2022/04/20 04:29:54;;;;;;;10.00;9.43;;;;;;;5.98;92.90;102102.97;4977337;28;20434;-46
2022/04/20 04:32:21;;;;;;;9.70;9.10;;;;;;;6.33;93.89;102102.53;4976191;28;20475;-46
2022/04/20 04:34:49;;;;;;;9.17;8.67;;;;;;;6.50;92.60;102093.09;4977112;28;20435;-44
2022/04/20 04:37:17;;;;;;;9.53;8.63;;;;;;;6.58;91.44;102087.94;4976833;28;20481;-46
2022/04/20 04:39:44;;;;;;;9.60;8.80;;;;;;;6.67;90.50;102090.59;4976803;28;20521;-44
2022/04/20 04:42:12;;;;;;;10.17;9.17;;;;;;;6.85;89.02;102089.91;4975982;28;20470;-45
2022/04/20 04:44:41;;;;;;;9.57;8.87;;;;;;;7.12;88.44;102087.38;4936969;29;20439;-45
2022/04/20 04:49:54;;;;;;;8.77;8.27;;;;;;;7.76;86.24;102076.88;4976032;28;20801;-46
2022/04/20 04:52:22;;;;;;;9.20;8.60;;;;;;;8.36;86.77;102079.97;4975624;28;20841;-47
2022/04/20 04:54:49;;;;;;;8.60;8.10;;;;;;;9.21;84.61;102080.25;4976359;28;20431;-48
2022/04/20 04:57:17;;;;;;;8.67;7.63;;;;;;;10.16;82.27;102080.97;4976616;28;20478;-45
2022/04/20 04:59:46;;;;;;;7.10;6.70;;;;;;;10.76;72.53;102073.59;4975969;28;20445;-45
2022/04/20 05:02:19;;;;;;;7.40;7.00;;;;;;;11.70;73.96;102073.88;4975906;28;20470;-45
2022/04/20 05:04:47;;;;;;;7.30;6.70;;;;;;;12.08;65.02;102074.91;4976305;28;20441;-47
2022/04/20 05:07:14;;;;;;;8.00;7.60;;;;;;;12.67;62.07;102066.19;4976114;28;20437;-47
2022/04/20 05:09:44;;;;;;;7.73;7.13;;;;;;;13.24;61.15;102073.78;4976399;28;20439;-44
2022/04/20 05:12:11;;;;;;;9.13;8.37;;;;;;;13.67;57.83;102080.25;4975676;28;20462;-49
2022/04/20 05:14:39;;;;;;;8.63;8.03;;;;;;;14.09;57.17;102077.72;4975605;28;20439;-46
2022/04/20 05:17:09;;;;;;;7.60;7.00;;;;;;;14.48;56.07;102079.25;4976053;28;20875;-48
2022/04/20 05:19:36;;;;;;;8.30;7.30;;;;;;;14.70;54.34;102084.44;4975922;28;20438;-44
2022/04/20 05:22:04;;;;;;;6.97;6.57;;;;;;;15.19;55.01;102078.28;4975433;28;20810;-45
2022/04/20 05:24:35;;;;;;;7.03;6.63;;;;;;;15.59;53.24;102082.13;4975967;28;20599;-46
2022/04/20 05:27:03;;;;;;;5.87;5.57;;;;;;;16.15;52.67;102077.47;4975893;28;21004;-50
2022/04/20 05:29:31;;;;;;;6.70;6.20;;;;;;;16.50;49.02;102070.94;4975469;28;20442;-46
2022/04/20 05:31:59;;;;;;;7.03;6.63;;;;;;;16.88;44.40;102074.78;4974858;28;20469;-44
2022/04/20 05:34:30;;;;;;;5.60;5.30;;;;;;;17.27;46.84;102073.13;4976075;28;20438;-45
2022/04/20 05:42:28;;;;;;;6.73;6.30;;;;;;;18.12;46.65;102068.41;4972508;28;20470;-47
2022/04/20 05:44:56;;;;;;;6.70;6.07;;;;;;;18.23;40.78;102067.72;4956288;29;20435;-47
2022/04/20 05:47:23;;;;;;;6.97;6.47;;;;;;;18.32;45.08;102068.31;4964367;28;20427;-52
2022/04/20 05:49:53;;;;;;;5.33;5.07;;;;;;;18.66;44.82;102072.53;4974687;28;20426;-46
2022/04/20 05:52:20;;;;;;;6.47;5.97;;;;;;;18.66;40.86;102070.66;4973865;28;20472;-47
2022/04/20 05:54:48;;;;;;;5.03;4.73;;;;;;;18.93;43.14;102071.28;4974236;28;20434;-46
2022/04/20 05:57:15;;;;;;;5.40;5.10;;;;;;;19.30;42.59;102073.03;4973684;28;20470;-47
2022/04/20 05:59:43;;;;;;;6.43;5.83;;;;;;;19.29;41.21;102084.91;4974347;28;20431;-46
2022/04/20 06:02:11;;;;;;;5.70;5.30;;;;;;;19.44;41.31;102081.09;4973742;28;20482;-48
2022/04/20 06:04:39;;;;;;;5.27;4.97;;;;;;;19.45;40.78;102078.16;4974369;28;20430;-48
2022/04/20 06:07:08;;;;;;;5.63;5.33;;;;;;;19.41;39.71;102076.13;4974037;28;20434;-46
2022/04/20 06:09:35;;;;;;;6.07;5.67;;;;;;;19.40;39.59;102082.56;4974175;28;20430;-47
2022/04/20 06:12:03;;;;;;;5.77;5.47;;;;;;;19.35;37.46;102077.81;4972995;28;20481;-44
2022/04/20 06:14:31;;;;;;;5.50;5.13;;;;;;;18.89;38.55;102085.44;4973989;28;20442;-45
2022/04/20 06:16:58;;;;;;;6.23;5.83;;;;;;;18.95;39.81;102080.00;4974043;28;20928;-45
2022/04/20 06:19:26;;;;;;;4.93;4.73;;;;;;;18.80;42.06;102079.47;4974191;28;20434;-44
2022/04/20 06:21:53;;;;;;;5.60;5.30;;;;;;;18.91;39.71;102086.06;4973368;28;21010;-45
2022/04/20 06:24:22;;;;;;;5.53;5.23;;;;;;;19.09;42.12;102086.13;4973908;28;20441;-47
2022/04/20 06:26:50;;;;;;;5.30;5.00;;;;;;;19.28;40.58;102075.16;4973862;28;20798;-44
2022/04/20 06:29:17;;;;;;;5.60;5.20;;;;;;;19.16;37.71;102087.75;4953012;28;20962;-44
2022/04/20 06:31:45;;;;;;;5.83;5.53;;;;;;;19.39;40.02;102081.72;4954788;28;20550;-47
2022/04/20 06:34:13;;;;;;;6.43;5.13;;;;;;;19.76;40.14;102083.47;4954458;28;20432;-44
2022/04/20 06:36:41;;;;;;;5.40;5.07;;;;;;;19.40;39.11;102079.88;4954292;28;20435;-48
2022/04/20 06:39:09;;;;;;;5.90;5.50;;;;;;;19.28;38.62;102063.50;4954237;28;20997;-45
2022/04/20 06:41:37;;;;;;;5.73;5.43;;;;;;;19.12;38.20;102066.75;4953717;28;20474;-44
2022/04/20 06:44:06;;;;;;;5.33;5.10;;;;;;;18.69;38.57;102066.69;4953630;28;20431;-45
2022/04/20 06:46:34;;;;;;;5.30;5.10;;;;;;;19.16;40.20;102055.28;4954192;28;20446;-47
2022/04/20 06:49:03;;;;;;;6.00;5.70;;;;;;;19.02;38.26;102059.16;4954197;28;20440;-49
2022/04/20 06:58:31;;;;;;;5.37;5.17;;;;;;;18.88;39.60;102056.75;4956667;28;105950;-44
2022/04/20 06:59:50;;;;;;;5.10;4.90;;;;;;;18.66;40.42;102072.53;4952659;28;20455;-49
2022/04/20 07:02:18;;;;;;;5.63;5.27;;;;;;;18.58;38.17;102054.69;4966065;28;20467;-47
2022/04/20 07:04:46;;;;;;;5.40;5.10;;;;;;;18.74;38.73;102058.72;4972909;28;20434;-48
2022/04/20 07:07:13;;;;;;;5.77;5.47;;;;;;;18.59;40.07;102069.84;5014158;23;20489;-46
2022/04/20 07:09:42;;;;;;;5.80;5.00;;;;;;;18.92;39.80;102068.78;5001248;28;20433;-45
2022/04/20 07:12:11;;;;;;;5.43;5.20;;;;;;;18.37;38.76;102065.78;4992124;28;20465;-45
2022/04/20 07:14:38;;;;;;;4.50;4.20;;;;;;;18.49;38.32;102076.75;4993155;28;20434;-47
2022/04/20 07:17:07;;;;;;;4.60;4.30;;;;;;;18.76;36.32;102067.44;4993083;28;20978;-47
2022/04/20 07:19:35;;;;;;;4.57;4.37;;;;;;;18.53;37.63;102069.88;4973662;28;20512;-46
2022/04/20 07:22:04;;;;;;;7.50;4.10;;;;;;;18.60;38.58;102068.81;4972789;28;20464;-46
2022/04/20 07:24:32;;;;;;;4.77;4.57;;;;;;;18.47;38.09;102068.84;4987521;28;20418;-47
2022/04/20 07:26:59;;;;;;;5.73;4.67;;;;;;;18.23;37.30;102072.28;4989696;28;20584;-46
2022/04/20 07:29:28;;;;;;;4.10;4.00;;;;;;;17.87;38.95;102072.00;4992706;28;20430;-45
2022/04/20 07:31:56;;;;;;;4.33;4.13;;;;;;;17.53;37.76;102075.81;4993097;28;20462;-45
2022/04/20 07:34:23;;;;;;;4.43;4.20;;;;;;;17.10;38.76;102076.25;4992653;28;20484;-45
2022/04/20 07:36:51;;;;;;;4.80;4.60;;;;;;;16.39;38.85;102075.06;4988518;28;20458;-49
2022/04/20 07:39:19;;;;;;;4.30;4.10;;;;;;;16.05;40.38;102077.81;4972760;28;20489;-48
2022/04/20 07:41:46;;;;;;;4.23;4.03;;;;;;;15.86;40.44;102074.00;4972882;28;20470;-44
2022/04/20 07:44:14;;;;;;;5.07;4.77;;;;;;;15.65;40.92;102078.66;4973444;28;20441;-45
2022/04/20 07:46:43;;;;;;;4.63;4.43;;;;;;;15.11;42.20;102076.56;4973418;28;20498;-44
2022/04/20 07:51:56;;;;;;;4.93;4.57;;;;;;;14.73;44.38;102088.59;4972759;28;20477;-45
2022/04/20 07:54:23;;;;;;;6.23;5.73;;;;;;;14.50;44.81;102099.50;4973454;28;20441;-43
2022/04/20 07:56:51;;;;;;;10.10;6.50;;;;;;;14.45;44.96;102099.25;4973666;28;20454;-45
2022/04/20 07:59:18;;;;;;;19.27;8.57;;;;;;;14.25;45.55;102092.75;4973460;28;20574;-43
2022/04/20 08:01:47;;;;;;;12.20;8.40;;;;;;;14.30;46.42;102093.03;4972727;28;20470;-49
2022/04/20 08:04:16;;;;;;;5.03;4.83;;;;;;;14.50;45.61;102090.63;4973137;28;20439;-42
2022/04/20 08:06:44;;;;;;;5.40;5.10;;;;;;;14.75;46.30;102097.31;4973060;28;20473;-49
2022/04/20 08:09:11;;;;;;;5.80;5.37;;;;;;;14.77;46.63;102101.44;4977120;28;20429;-50
2022/04/20 08:11:39;;;;;;;5.20;4.90;;;;;;;14.87;45.20;102096.56;4981304;28;20538;-45
2022/04/20 08:14:13;;;;;;;5.37;5.10;;;;;;;15.21;44.66;102090.50;4992712;28;20434;-49
2022/04/20 08:16:41;;;;;;;5.03;4.73;;;;;;;15.49;44.79;102085.16;4992407;28;20468;-46
2022/04/20 08:19:10;;;;;;;5.10;4.70;;;;;;;15.51;43.87;102080.41;4992396;28;20477;-46
2022/04/20 08:21:38;;;;;;;5.27;4.97;;;;;;;15.25;44.73;102088.25;4992035;28;20476;-45
2022/04/20 08:24:06;;;;;;;5.50;5.20;;;;;;;15.18;44.80;102084.66;4992653;28;20811;-44
2022/04/20 08:26:34;;;;;;;5.40;5.10;;;;;;;15.14;45.24;102088.78;4992577;28;20540;-48
2022/04/20 08:29:01;;;;;;;4.77;4.37;;;;;;;14.98;44.71;102089.03;4992500;28;20430;-42
2022/04/20 08:31:29;;;;;;;4.90;4.67;;;;;;;15.04;44.03;102086.41;4990237;28;20473;-48
2022/04/20 08:33:56;;;;;;;4.30;4.10;;;;;;;14.90;45.25;102088.13;4991921;28;20986;-45
2022/04/20 08:36:25;;;;;;;5.03;4.60;;;;;;;14.61;45.33;102096.31;4992347;28;20457;-44
2022/04/20 08:38:53;;;;;;;5.00;4.53;;;;;;;14.75;45.75;102095.44;4992484;28;20474;-45
2022/04/20 08:41:20;;;;;;;5.10;4.90;;;;;;;14.76;44.77;102089.03;4991610;28;20484;-45
2022/04/20 08:43:48;;;;;;;4.80;4.50;;;;;;;14.63;45.15;102091.59;4992195;28;20433;-46
2022/04/20 08:46:18;;;;;;;4.67;4.47;;;;;;;14.58;45.37;102080.59;4992014;28;20812;-44
2022/04/20 08:48:53;;;;;;;4.63;4.43;;;;;;;14.56;45.77;102082.63;4991922;28;20518;-48
2022/04/20 08:51:21;;;;;;;4.90;4.50;;;;;;;14.66;45.18;102085.03;4991644;28;20461;-47
2022/04/20 08:53:50;;;;;;;4.70;4.40;;;;;;;14.84;44.89;102077.34;4991780;28;20438;-47
2022/04/20 08:59:05;;;;;;;11.90;4.67;;;;;;;14.91;45.37;102076.38;4991485;28;20470;-49
2022/04/20 09:01:32;;;;;;;5.23;4.70;;;;;;;15.03;44.57;102065.94;4990839;28;20462;-44
2022/04/20 09:04:01;;;;;;;5.07;4.70;;;;;;;14.99;44.90;102071.91;4991757;28;20434;-47
2022/04/20 09:06:29;;;;;;;4.30;4.20;;;;;;;14.88;44.89;102076.75;4993068;28;20493;-44
2022/04/20 09:08:58;;;;;;;4.80;4.40;;;;;;;15.00;45.00;102077.06;4998426;28;20426;-47
2022/04/20 09:11:26;;;;;;;6.20;5.77;;;;;;;15.08;44.06;102082.34;5003345;28;20460;-46
2022/04/20 09:13:53;;;;;;;4.60;4.30;;;;;;;15.24;43.56;102078.50;4995423;28;20434;-44
2022/04/20 09:16:22;;;;;;;5.20;4.87;;;;;;;15.15;43.99;102083.19;4995625;28;20462;-44
2022/04/20 09:18:51;;;;;;;4.43;4.13;;;;;;;15.08;44.06;102092.25;4995426;28;20560;-43
2022/04/20 09:21:20;;;;;;;3.87;3.67;;;;;;;15.32;42.94;102079.19;4994761;28;20459;-48
2022/04/20 09:23:48;;;;;;;3.87;3.77;;;;;;;15.28;44.20;102077.09;4995549;28;20453;-48
2022/04/20 09:26:17;;;;;;;4.27;4.00;;;;;;;14.99;43.80;102078.13;4995472;28;20454;-47
2022/04/20 09:29:06;;;;;;;5.33;4.93;;;;;;;14.98;42.92;102057.66;4995530;28;20875;-47
2022/04/20 09:31:43;;;;;;;5.40;5.00;;;;;;;15.20;41.94;102053.06;4994750;28;21000;-43
2022/04/20 09:34:33;;;;;;;5.07;4.70;;;;;;;15.22;41.95;102069.81;4995059;28;20437;-45
2022/04/20 09:37:22;;;;;;;4.90;4.63;;;;;;;15.41;41.67;102055.72;4995429;28;20975;-45
2022/04/20 09:39:51;;;;;;;5.03;4.77;;;;;;;15.28;42.02;102056.44;4995069;28;20484;-46
2022/04/20 09:42:21;;;;;;;5.57;5.27;;;;;;;15.31;41.81;102047.16;4994497;28;20462;-50
2022/04/20 09:44:59;;;;;;;5.30;4.90;;;;;;;15.51;40.80;102037.38;4995450;28;20433;-47
2022/04/20 09:50:19;;;;;;;5.63;5.13;;;;;;;15.78;41.46;102033.81;4975382;28;20450;-49
2022/04/20 09:52:48;;;;;;;5.20;4.90;;;;;;;15.99;41.19;102028.34;4974944;28;20471;-47
2022/04/20 09:55:18;;;;;;;5.37;5.07;;;;;;;15.96;40.08;102022.53;4975806;28;20446;-45
2022/04/20 09:57:47;;;;;;;5.33;5.03;;;;;;;15.79;40.54;102026.59;4975503;28;20435;-47
2022/04/20 10:00:16;;;;;;;6.70;5.20;;;;;;;16.01;40.82;102017.34;4975000;28;20477;-44
2022/04/20 10:02:48;;;;;;;5.97;5.30;;;;;;;16.02;40.30;102006.41;4975064;28;20980;-44
2022/04/20 10:05:17;;;;;;;5.83;5.43;;;;;;;16.17;40.84;102010.78;4975199;28;20497;-45
2022/04/20 10:07:51;;;;;;;5.03;4.73;;;;;;;16.33;41.02;102010.44;4975450;28;20509;-44
2022/04/20 10:10:19;;;;;;;6.17;5.83;;;;;;;16.27;41.08;102000.47;4975150;28;20438;-46
2022/04/20 10:12:54;;;;;;;5.63;5.33;;;;;;;16.24;42.21;101999.03;4974759;28;21011;-47
2022/04/20 10:18:12;;;;;;;6.70;6.30;;;;;;;16.49;40.87;101999.25;4974408;28;20445;-49
2022/04/20 10:20:45;;;;;;;5.97;5.50;;;;;;;16.38;41.19;102008.78;4974848;28;20501;-42
2022/04/20 10:23:18;;;;;;;5.07;4.87;;;;;;;16.55;41.24;101998.47;4974531;28;20459;-48
2022/04/20 10:25:46;;;;;;;6.10;5.60;;;;;;;16.73;40.35;101993.31;4974839;28;20474;-47
2022/04/20 10:28:22;;;;;;;6.37;5.97;;;;;;;16.77;38.52;101991.88;4974880;28;20435;-46
2022/04/20 10:31:07;;;;;;;6.40;6.00;;;;;;;16.80;39.31;101996.84;4974141;28;20491;-46
2022/04/20 10:33:38;;;;;;;9.20;7.13;;;;;;;16.71;40.74;101992.72;4974870;28;20434;-45
2022/04/20 10:36:09;;;;;;;6.70;6.30;;;;;;;16.37;41.02;101987.44;4974561;28;20447;-44
2022/04/20 10:38:36;;;;;;;7.60;7.00;;;;;;;16.50;39.07;101987.47;4974550;28;20441;-45
2022/04/20 10:41:08;;;;;;;5.90;5.43;;;;;;;16.47;39.94;101982.50;4974035;28;20489;-49
2022/04/20 10:43:39;;;;;;;7.17;6.70;;;;;;;16.42;41.43;101987.69;4974755;28;20439;-44
2022/04/20 10:46:14;;;;;;;7.30;6.60;;;;;;;16.42;43.45;101987.69;4985161;28;20477;-45
2022/04/20 10:48:43;;;;;;;6.60;6.10;;;;;;;16.31;41.52;101989.09;4993737;28;20467;-45
2022/04/20 10:51:12;;;;;;;5.90;5.50;;;;;;;16.58;41.00;101985.44;4992938;28;20456;-45
2022/04/20 10:53:41;;;;;;;6.73;6.27;;;;;;;16.66;40.18;101979.03;4993945;28;20438;-44
2022/04/20 10:56:09;;;;;;;7.00;6.50;;;;;;;16.98;40.26;101980.88;4993826;28;20822;-44
2022/04/20 10:58:39;;;;;;;6.90;6.33;;;;;;;16.85;40.97;101975.50;4993868;28;20438;-45
2022/04/20 11:01:11;;;;;;;7.20;6.60;;;;;;;16.74;40.73;101980.69;4993034;28;20478;-48
2022/04/20 11:04:05;;;;;;;6.37;5.97;;;;;;;16.74;40.52;101970.75;4993831;28;20524;-47
2022/04/20 11:07:15;;;;;;;7.00;6.50;;;;;;;16.99;41.24;101968.25;4993404;28;20470;-44
2022/04/20 11:10:06;;;;;;;7.63;6.93;;;;;;;17.17;39.72;101966.53;4993408;28;20433;-42
2022/04/20 11:19:03;;;;;;;7.90;7.30;;;;;;;17.23;40.92;101962.22;4993543;28;20998;-45
2022/04/20 11:21:31;;;;;;;7.83;7.23;;;;;;;17.26;40.95;101960.94;4992528;28;20474;-43
2022/04/20 11:24:05;;;;;;;8.30;7.50;;;;;;;17.15;39.63;101957.84;4993224;28;20436;-44
2022/04/20 11:26:35;;;;;;;9.33;8.60;;;;;;;17.19;39.73;101960.13;4993018;28;20516;-46
2022/04/20 11:29:10;;;;;;;7.90;7.30;;;;;;;16.98;41.23;101969.28;4992981;28;20437;-46
2022/04/20 11:31:42;;;;;;;6.77;6.37;;;;;;;16.69;39.37;101950.84;4992562;28;20468;-46
2022/04/20 11:34:11;;;;;;;8.63;7.93;;;;;;;16.91;40.01;101961.19;4993503;28;20441;-43
2022/04/20 11:36:42;;;;;;;9.20;8.20;;;;;;;17.10;39.69;101944.19;4992834;28;20548;-46
2022/04/20 11:39:11;;;;;;;8.60;7.90;;;;;;;17.19;38.81;101944.78;4993211;28;20444;-48
2022/04/20 11:41:43;;;;;;;7.73;6.87;;;;;;;16.99;41.25;101944.81;4992397;28;20469;-47
2022/04/20 11:44:22;;;;;;;7.43;6.93;;;;;;;16.93;40.08;101936.75;4992988;28;20531;-46
2022/04/20 11:46:53;;;;;;;9.10;8.30;;;;;;;16.79;40.60;101941.31;4992755;28;20537;-44
2022/04/20 11:49:21;;;;;;;10.33;8.67;;;;;;;16.61;39.97;101938.41;4992679;28;20923;-46
2022/04/20 11:51:57;;;;;;;8.23;7.63;;;;;;;16.99;39.73;101934.03;4992155;28;20466;-45
2022/04/20 11:54:27;;;;;;;8.40;7.80;;;;;;;17.00;40.58;101932.16;4992848;28;20488;-43
2022/04/20 11:56:55;;;;;;;8.73;7.97;;;;;;;17.07;38.68;101936.53;4992850;28;20464;-48
2022/04/20 11:59:24;;;;;;;7.60;7.00;;;;;;;17.28;39.06;101930.03;4992722;28;20445;-45
2022/04/20 12:01:54;;;;;;;8.13;7.43;;;;;;;17.38;39.25;101935.00;4991835;28;20508;-45
2022/04/20 12:04:25;;;;;;;7.77;6.97;;;;;;;17.28;38.43;101937.28;4992860;28;20437;-47
2022/04/20 12:06:55;;;;;;;8.40;7.70;;;;;;;17.43;38.94;101927.09;4992495;28;20492;-47
2022/04/20 12:09:24;;;;;;;7.63;7.13;;;;;;;17.45;38.92;101931.22;4992831;28;20430;-43